createdAt,value
2018-02-16T00:01:53.189Z,95722.53
2018-02-16T00:04:21.564Z,95721.99
2018-02-16T00:06:49.944Z,95724.93
2018-02-16T00:09:18.333Z,95724.16
2018-02-16T00:11:46.806Z,95727.13
2018-02-16T00:14:15.897Z,95728.50
2018-02-16T00:16:44.489Z,95727.23
2018-02-16T00:19:12.842Z,95723.17
2018-02-16T00:21:41.142Z,95723.79
2018-02-16T00:24:09.530Z,95720.61
2018-02-16T00:26:37.793Z,95724.28
2018-02-16T00:29:06.578Z,95724.18
2018-02-16T00:31:35.094Z,95724.28
2018-02-16T00:34:03.638Z,95725.93
2018-02-16T00:36:32.003Z,95729.02
2018-02-16T00:39:00.490Z,95724.33
2018-02-16T00:41:29.085Z,95723.78
2018-02-16T00:43:57.462Z,95733.16
2018-02-16T00:46:25.834Z,95732.84
2018-02-16T00:48:54.421Z,95726.33
2018-02-16T00:51:22.783Z,95733.63
2018-02-16T00:53:51.176Z,95732.50
2018-02-16T00:56:19.553Z,95732.70
2018-02-16T00:58:48.032Z,95727.05
2018-02-16T01:01:16.518Z,95725.56
2018-02-16T01:03:44.898Z,95725.11
2018-02-16T01:06:13.477Z,95733.41
2018-02-16T01:08:41.956Z,95722.36
2018-02-16T01:11:10.228Z,95725.05
2018-02-16T01:13:38.401Z,95719.52
2018-02-16T01:16:06.577Z,95721.64
2018-02-16T01:18:35.308Z,95712.91
2018-02-16T01:21:03.589Z,95726.39
2018-02-16T01:23:32.121Z,95717.16
2018-02-16T01:26:00.594Z,95720.38
2018-02-16T01:28:29.086Z,95719.45
2018-02-16T01:30:57.670Z,95707.53
2018-02-16T01:33:26.136Z,95710.72
2018-02-16T01:35:54.328Z,95715.59
2018-02-16T01:38:22.800Z,95714.84
2018-02-16T01:40:51.082Z,95716.02
2018-02-16T01:43:19.465Z,95717.94
2018-02-16T01:45:48.757Z,95714.90
2018-02-16T01:48:17.443Z,95714.21
2018-02-16T01:50:45.816Z,95714.94
2018-02-16T01:53:14.402Z,95712.83
2018-02-16T01:55:42.678Z,95722.83
2018-02-16T01:58:10.870Z,95720.62
2018-02-16T02:00:39.586Z,95716.70
2018-02-16T02:03:07.819Z,95724.20
2018-02-16T02:05:36.379Z,95730.67
2018-02-16T02:08:04.562Z,95727.85
2018-02-16T02:10:32.946Z,95726.12
2018-02-16T02:13:01.229Z,95728.25
2018-02-16T02:15:29.402Z,95729.38
2018-02-16T02:17:57.865Z,95731.50
2018-02-16T02:20:26.250Z,95730.44
2018-02-16T02:22:54.736Z,95734.67
2018-02-16T02:25:23.110Z,95735.17
2018-02-16T02:27:51.593Z,95736.34
2018-02-16T02:30:20.173Z,95735.56
2018-02-16T02:32:48.970Z,95731.50
2018-02-16T02:35:17.546Z,95736.05
2018-02-16T02:37:46.697Z,95745.22
2018-02-16T02:40:15.330Z,95746.22
2018-02-16T02:42:43.805Z,95753.66
2018-02-16T02:45:13.417Z,95759.16
2018-02-16T02:47:41.890Z,95763.00
2018-02-16T02:50:10.282Z,95756.28
2018-02-16T02:52:38.649Z,95758.20
2018-02-16T02:55:07.029Z,95764.04
2018-02-16T02:57:35.510Z,95765.98
2018-02-16T03:00:03.718Z,95767.06
2018-02-16T03:02:32.062Z,95771.19
2018-02-16T03:05:00.262Z,95775.38
2018-02-16T03:07:28.614Z,95772.14
2018-02-16T03:09:57.201Z,95772.10
2018-02-16T03:12:25.574Z,95771.02
2018-02-16T03:14:53.850Z,95775.02
2018-02-16T03:17:22.369Z,95773.92
2018-02-16T03:19:50.871Z,95767.95
2018-02-16T03:22:19.175Z,95769.78
2018-02-16T03:24:47.461Z,95777.11
2018-02-16T03:27:15.843Z,95777.08
2018-02-16T03:29:44.421Z,95779.55
2018-02-16T03:32:13.010Z,95775.44
2018-02-16T03:34:41.594Z,95771.17
2018-02-16T03:37:10.074Z,95779.30
2018-02-16T03:39:38.449Z,95787.39
2018-02-16T03:42:07.036Z,95786.39
2018-02-16T03:44:35.405Z,95790.48
2018-02-16T03:47:03.665Z,95788.16
2018-02-16T03:49:32.066Z,95793.44
2018-02-16T03:52:00.325Z,95791.15
2018-02-16T03:54:28.612Z,95797.09
2018-02-16T03:56:57.203Z,95794.80
2018-02-16T03:59:25.313Z,95789.83
2018-02-16T04:01:53.645Z,95798.12
2018-02-16T04:04:21.917Z,95798.41
2018-02-16T04:06:50.303Z,95798.96
2018-02-16T04:09:18.973Z,95804.10
2018-02-16T04:11:47.266Z,95812.16
2018-02-16T04:14:15.945Z,95817.37
2018-02-16T04:16:44.617Z,95813.83
2018-02-16T04:19:13.480Z,95810.58
2018-02-16T04:21:41.808Z,95826.30
2018-02-16T04:24:10.381Z,95821.52
2018-02-16T04:26:38.566Z,95819.83
2018-02-16T04:29:07.142Z,95825.88
2018-02-16T04:31:35.619Z,95823.85
2018-02-16T04:34:03.893Z,95827.20
2018-02-16T04:36:32.886Z,95837.29
2018-02-16T04:39:01.161Z,95834.73
2018-02-16T04:41:29.442Z,95842.50
2018-02-16T04:43:57.918Z,95836.98
2018-02-16T04:46:26.398Z,95843.80
2018-02-16T04:48:55.028Z,95842.53
2018-02-16T04:51:23.158Z,95836.55
2018-02-16T04:53:51.533Z,95833.17
2018-02-16T04:56:20.009Z,95843.77
2018-02-16T04:58:48.373Z,95838.70
2018-02-16T05:01:16.870Z,95842.89
2018-02-16T05:03:45.254Z,95841.05
2018-02-16T05:06:13.713Z,95844.28
2018-02-16T05:08:42.626Z,95841.63
2018-02-16T05:11:11.304Z,95848.22
2018-02-16T05:13:39.891Z,95849.80
2018-02-16T05:16:08.109Z,95847.11
2018-02-16T05:18:36.541Z,95858.39
2018-02-16T05:21:04.984Z,95861.58
2018-02-16T05:23:33.506Z,95863.30
2018-02-16T05:26:01.694Z,95864.88
2018-02-16T05:28:30.155Z,95871.92
2018-02-16T05:30:58.583Z,95872.98
2018-02-16T05:33:27.017Z,95872.92
2018-02-16T05:35:55.626Z,95873.09
2018-02-16T05:38:24.385Z,95877.69
2018-02-16T05:40:52.924Z,95875.66
2018-02-16T05:43:21.652Z,95879.75
2018-02-16T05:45:50.137Z,95891.98
2018-02-16T05:48:19.031Z,95894.94
2018-02-16T05:50:48.623Z,95897.95
2018-02-16T05:53:17.108Z,95901.44
2018-02-16T05:55:45.902Z,95896.09
2018-02-16T05:58:14.159Z,95906.09
2018-02-16T06:00:42.660Z,95904.95
2018-02-16T06:03:12.094Z,95908.95
2018-02-16T06:05:40.643Z,95901.62
2018-02-16T06:08:09.077Z,95900.55
2018-02-16T06:10:37.017Z,95897.66
2018-02-16T06:13:04.895Z,95907.47
2018-02-16T06:15:32.825Z,95908.58
2018-02-16T06:18:00.780Z,95906.26
2018-02-16T06:20:29.276Z,95913.98
2018-02-16T06:22:57.836Z,95911.23
2018-02-16T06:25:26.343Z,95918.45
2018-02-16T06:27:54.712Z,95921.76
2018-02-16T06:30:23.085Z,95915.59
2018-02-16T06:32:51.575Z,95922.63
2018-02-16T06:35:20.172Z,95931.06
2018-02-16T06:37:48.430Z,95932.25
2018-02-16T06:40:17.020Z,95890.36
2018-02-16T06:42:45.270Z,95892.28
2018-02-16T06:45:13.778Z,95941.43
2018-02-16T06:47:42.259Z,95952.91
2018-02-16T06:50:10.630Z,95959.80
2018-02-16T06:52:38.806Z,95956.42
2018-02-16T06:55:07.119Z,95961.87
2018-02-16T06:57:35.658Z,95959.41
2018-02-16T07:00:04.241Z,95960.47
2018-02-16T07:02:32.435Z,95963.31
2018-02-16T07:05:00.892Z,95965.52
2018-02-16T07:07:29.211Z,95966.58
2018-02-16T07:09:57.848Z,95965.79
2018-02-16T07:12:26.437Z,95962.61
2018-02-16T07:14:54.756Z,95968.33
2018-02-16T07:17:23.401Z,95973.69
2018-02-16T07:19:51.669Z,95966.76
2018-02-16T07:22:20.058Z,95960.60
2018-02-16T07:24:48.432Z,95956.64
2018-02-16T07:27:16.706Z,95957.86
2018-02-16T07:29:45.294Z,95961.00
2018-02-16T07:32:13.601Z,95966.55
2018-02-16T07:34:41.841Z,95966.05
2018-02-16T07:37:10.203Z,95966.98
2018-02-16T07:39:38.720Z,95959.53
2018-02-16T07:42:07.506Z,95956.84
2018-02-16T07:44:35.800Z,95954.03
2018-02-16T07:47:04.141Z,95954.07
2018-02-16T07:49:32.341Z,95951.62
2018-02-16T07:52:00.897Z,95942.01
2018-02-16T07:54:29.197Z,95940.50
2018-02-16T07:56:57.146Z,95939.30
2018-02-16T07:59:25.153Z,95908.92
2018-02-16T08:01:53.163Z,95923.95
2018-02-16T08:04:21.139Z,95925.30
2018-02-16T08:06:49.150Z,95925.05
2018-02-16T08:09:17.198Z,95936.64
2018-02-16T08:11:45.171Z,95929.55
2018-02-16T08:14:13.115Z,95928.72
2018-02-16T08:16:41.066Z,95924.48
2018-02-16T08:19:09.053Z,95918.75
2018-02-16T08:21:36.974Z,95923.29
2018-02-16T08:24:04.918Z,95915.27
2018-02-16T08:26:32.889Z,95917.14
2018-02-16T08:29:00.872Z,95914.14
2018-02-16T08:31:28.832Z,95909.00
2018-02-16T08:33:56.820Z,95911.44
2018-02-16T08:36:24.846Z,95921.52
2018-02-16T08:38:52.817Z,95915.56
2018-02-16T08:41:20.786Z,95917.70
2018-02-16T08:43:49.304Z,95916.17
2018-02-16T08:46:17.234Z,95917.02
2018-02-16T08:48:45.169Z,95910.93
2018-02-16T08:51:13.122Z,95916.95
2018-02-16T08:53:41.167Z,95914.06
2018-02-16T08:56:09.087Z,95915.29
2018-02-16T08:58:37.007Z,95916.53
2018-02-16T09:01:04.967Z,95921.23
2018-02-16T09:03:32.917Z,95911.67
2018-02-16T09:06:00.835Z,95901.22
2018-02-16T09:08:28.781Z,95911.23
2018-02-16T09:10:56.758Z,95901.98
2018-02-16T09:13:24.724Z,95902.94
2018-02-16T09:15:52.728Z,95899.22
2018-02-16T09:18:20.713Z,95896.52
2018-02-16T09:20:48.689Z,95898.61
2018-02-16T09:23:16.597Z,95899.26
2018-02-16T09:25:44.512Z,95902.79
2018-02-16T09:28:12.522Z,95896.52
2018-02-16T09:30:40.466Z,95889.89
2018-02-16T09:33:08.479Z,95900.34
2018-02-16T09:35:37.658Z,95894.91
2018-02-16T09:38:05.613Z,95894.81
2018-02-16T09:40:33.572Z,95898.90
2018-02-16T09:43:01.607Z,95889.95
2018-02-16T09:45:30.034Z,95886.96
2018-02-16T09:47:57.992Z,95883.86
2018-02-16T09:50:25.943Z,95887.40
2018-02-16T09:52:53.919Z,95883.55
2018-02-16T09:55:21.887Z,95883.35
2018-02-16T09:57:49.923Z,95877.61
2018-02-16T10:00:17.907Z,95883.46
2018-02-16T10:02:45.891Z,95874.84
2018-02-16T10:05:13.910Z,95876.58
2018-02-16T10:07:41.855Z,95876.50
2018-02-16T10:10:09.858Z,95867.45
2018-02-16T10:12:37.870Z,95865.02
2018-02-16T10:15:05.976Z,95858.66
2018-02-16T10:17:33.941Z,95865.49
2018-02-16T10:20:01.960Z,95838.84
2018-02-16T10:22:29.988Z,95855.69
2018-02-16T10:24:58.037Z,95847.73
2018-02-16T10:27:26.061Z,95850.75
2018-02-16T10:29:54.084Z,95842.54
2018-02-16T10:32:22.117Z,95838.30
2018-02-16T10:34:50.100Z,95834.60
2018-02-16T10:37:18.141Z,95837.13
2018-02-16T10:39:46.167Z,95842.69
2018-02-16T10:42:14.168Z,95832.34
2018-02-16T10:44:42.164Z,95830.58
2018-02-16T10:47:10.632Z,95829.84
2018-02-16T10:49:38.590Z,95824.73
2018-02-16T10:52:06.602Z,95821.39
2018-02-16T10:54:34.559Z,95827.64
2018-02-16T10:57:02.545Z,95817.84
2018-02-16T10:59:30.588Z,95816.55
2018-02-16T11:02:04.180Z,95814.14
2018-02-16T11:04:37.743Z,95816.03
2018-02-16T11:07:11.304Z,95822.84
2018-02-16T11:09:39.925Z,95820.33
2018-02-16T11:12:07.902Z,95815.14
2018-02-16T11:14:35.910Z,95809.33
2018-02-16T11:17:03.862Z,95805.70
2018-02-16T11:19:31.824Z,95806.88
2018-02-16T11:21:59.811Z,95810.42
2018-02-16T11:24:27.760Z,95799.95
2018-02-16T11:26:55.765Z,95793.55
2018-02-16T11:29:23.706Z,95796.70
2018-02-16T11:31:51.726Z,95785.32
2018-02-16T11:34:19.684Z,95789.90
2018-02-16T11:36:47.614Z,95782.31
2018-02-16T11:39:15.561Z,95786.63
2018-02-16T11:41:43.569Z,95784.36
2018-02-16T11:44:11.502Z,95783.30
2018-02-16T11:46:39.461Z,95781.71
2018-02-16T11:49:07.986Z,95780.33
2018-02-16T11:51:35.898Z,95773.43
2018-02-16T11:54:03.894Z,95774.12
2018-02-16T11:56:31.909Z,95776.13
2018-02-16T11:58:59.785Z,95778.50
2018-02-16T12:01:27.784Z,95783.12
2018-02-16T12:03:55.750Z,95779.16
2018-02-16T12:06:23.717Z,95775.94
2018-02-16T12:08:51.718Z,95774.08
2018-02-16T12:11:19.741Z,95779.31
2018-02-16T12:13:47.682Z,95772.02
2018-02-16T12:16:15.592Z,95767.59
2018-02-16T12:18:43.592Z,95765.20
2018-02-16T12:21:11.555Z,95758.88
2018-02-16T12:23:39.578Z,95760.85
2018-02-16T12:26:07.534Z,95764.07
2018-02-16T12:28:35.569Z,95761.67
2018-02-16T12:31:03.634Z,95752.07
2018-02-16T12:33:31.554Z,95752.31
2018-02-16T12:35:59.520Z,95745.06
2018-02-16T12:38:27.538Z,95744.00
2018-02-16T12:40:55.554Z,95742.92
2018-02-16T12:43:23.594Z,95724.25
2018-02-16T12:45:51.567Z,95739.95
2018-02-16T12:48:19.520Z,95735.34
2018-02-16T12:50:47.809Z,95723.26
2018-02-16T12:53:15.798Z,95738.13
2018-02-16T12:55:43.807Z,95733.86
2018-02-16T12:58:11.777Z,95733.39
2018-02-16T13:00:39.764Z,95731.73
2018-02-16T13:03:07.796Z,95730.51
2018-02-16T13:05:35.749Z,95723.45
2018-02-16T13:08:03.722Z,95735.51
2018-02-16T13:10:31.704Z,95738.66
2018-02-16T13:12:59.661Z,95734.19
2018-02-16T13:15:27.631Z,95738.63
2018-02-16T13:17:55.590Z,95736.77
2018-02-16T13:20:23.515Z,95734.01
2018-02-16T13:22:51.496Z,95733.16
2018-02-16T13:25:19.514Z,95735.89
2018-02-16T13:27:47.522Z,95735.00
2018-02-16T13:30:20.201Z,95733.55
2018-02-16T13:32:48.165Z,95731.58
2018-02-16T13:35:16.197Z,95733.57
2018-02-16T13:37:44.286Z,95737.80
2018-02-16T13:40:12.378Z,95732.36
2018-02-16T13:42:40.391Z,95733.50
2018-02-16T13:45:08.395Z,95741.92
2018-02-16T13:47:37.382Z,95735.48
2018-02-16T13:50:05.423Z,95740.35
2018-02-16T13:52:33.778Z,95731.95
2018-02-16T13:55:01.737Z,95727.17
2018-02-16T13:57:29.765Z,95727.70
2018-02-16T13:59:57.682Z,95733.07
2018-02-16T14:02:25.681Z,95733.02
2018-02-16T14:04:53.661Z,95726.84
2018-02-16T14:07:21.595Z,95721.37
2018-02-16T14:09:49.509Z,95722.97
2018-02-16T14:12:17.507Z,95721.97
2018-02-16T14:14:45.505Z,95717.64
2018-02-16T14:17:13.637Z,95713.78
2018-02-16T14:19:41.642Z,95713.41
2018-02-16T14:22:09.572Z,95721.84
2018-02-16T14:24:37.546Z,95720.47
2018-02-16T14:27:05.573Z,95727.68
2018-02-16T14:29:33.488Z,95728.52
2018-02-16T14:32:01.476Z,95729.73
2018-02-16T14:34:29.524Z,95730.95
2018-02-16T14:36:57.497Z,95734.51
2018-02-16T14:39:25.583Z,95739.94
2018-02-16T14:41:53.599Z,95734.47
2018-02-16T14:44:21.616Z,95732.26
2018-02-16T14:46:49.526Z,95735.05
2018-02-16T14:49:17.503Z,95733.01
2018-02-16T14:51:45.507Z,95728.95
2018-02-16T14:54:13.890Z,95731.02
2018-02-16T14:56:41.882Z,95734.63
2018-02-16T14:59:09.828Z,95742.06
2018-02-16T15:01:37.835Z,95743.50
2018-02-16T15:04:05.839Z,95741.70
2018-02-16T15:06:33.910Z,95751.04
2018-02-16T15:09:01.854Z,95748.84
2018-02-16T15:11:29.758Z,95760.73
2018-02-16T15:13:57.766Z,95756.20
2018-02-16T15:16:25.754Z,95758.09
2018-02-16T15:18:53.744Z,95758.95
2018-02-16T15:21:21.835Z,95758.11
2018-02-16T15:23:49.787Z,95763.58
2018-02-16T15:26:17.794Z,95762.03
2018-02-16T15:28:46.074Z,95773.70
2018-02-16T15:31:14.219Z,95778.64
2018-02-16T15:33:42.167Z,95780.75
2018-02-16T15:36:10.097Z,95774.55
2018-02-16T15:38:38.110Z,95779.88
2018-02-16T15:41:06.122Z,95777.00
2018-02-16T15:43:35.001Z,95780.95
2018-02-16T15:46:03.022Z,95787.59
2018-02-16T15:48:31.464Z,95795.03
2018-02-16T15:50:59.470Z,95792.13
2018-02-16T15:53:27.409Z,95782.75
2018-02-16T15:55:55.578Z,95799.91
2018-02-16T15:58:23.542Z,95802.02
2018-02-16T16:00:51.561Z,95728.42
2018-02-16T16:03:20.676Z,95815.17
2018-02-16T16:08:38.720Z,95812.34
2018-02-16T16:11:06.689Z,95809.00
2018-02-16T16:13:34.653Z,95814.47
2018-02-16T16:16:02.680Z,95820.93
2018-02-16T16:18:30.599Z,95826.64
2018-02-16T16:20:59.314Z,95826.86
2018-02-16T16:23:27.363Z,95825.08
2018-02-16T16:25:55.313Z,95834.11
2018-02-16T16:28:23.331Z,95821.48
2018-02-16T16:30:51.257Z,95833.47
2018-02-16T16:33:19.171Z,95838.23
2018-02-16T16:35:47.167Z,95843.16
2018-02-16T16:38:15.130Z,95848.34
2018-02-16T16:40:43.052Z,95851.24
2018-02-16T16:43:11.072Z,95853.00
2018-02-16T16:45:39.041Z,95856.48
2018-02-16T16:48:06.910Z,95861.38
2018-02-16T16:50:34.934Z,95860.02
2018-02-16T16:53:02.854Z,95867.98
2018-02-16T16:55:30.839Z,95862.89
2018-02-16T16:57:59.053Z,95866.27
2018-02-16T17:00:27.078Z,95861.49
2018-02-16T17:02:55.051Z,95871.73
2018-02-16T17:05:23.014Z,95804.67
2018-02-16T17:07:51.981Z,95869.27
2018-02-16T17:10:20.106Z,95877.58
2018-02-16T17:12:48.133Z,95875.86
2018-02-16T17:15:16.064Z,95884.73
2018-02-16T17:17:44.062Z,95885.64
2018-02-16T17:20:12.074Z,95883.22
2018-02-16T17:22:40.714Z,95886.28
2018-02-16T17:25:08.649Z,95895.97
2018-02-16T17:27:36.643Z,95898.72
2018-02-16T17:30:04.723Z,95901.58
2018-02-16T17:32:32.718Z,95904.54
2018-02-16T17:35:00.629Z,95907.72
2018-02-16T17:37:28.651Z,95905.28
2018-02-16T17:39:56.625Z,95907.30
2018-02-16T17:42:24.506Z,95908.22
2018-02-16T17:44:52.499Z,95896.65
2018-02-16T17:47:20.426Z,95903.55
2018-02-16T17:49:48.394Z,95901.92
2018-02-16T17:52:16.398Z,95903.43
2018-02-16T17:54:44.369Z,95910.94
2018-02-16T17:57:12.517Z,95911.55
2018-02-16T17:59:41.079Z,95912.82
2018-02-16T18:02:09.117Z,95915.00
2018-02-16T18:04:37.057Z,95914.43
2018-02-16T18:07:05.010Z,95930.66
2018-02-16T18:09:32.898Z,95932.02
2018-02-16T18:12:00.960Z,95920.43
2018-02-16T18:14:28.871Z,95923.90
2018-02-16T18:16:56.800Z,95935.00
2018-02-16T18:19:24.783Z,95938.31
2018-02-16T18:21:52.857Z,95947.03
2018-02-16T18:24:20.794Z,95944.34
2018-02-16T18:26:48.818Z,95951.08
2018-02-16T18:29:16.798Z,95954.36
2018-02-16T18:31:44.772Z,95951.73
2018-02-16T18:34:12.846Z,95953.56
2018-02-16T18:36:40.829Z,95939.86
2018-02-16T18:39:08.821Z,95953.00
2018-02-16T18:41:36.850Z,95959.73
2018-02-16T18:44:04.908Z,95952.26
2018-02-16T18:46:32.893Z,95956.55
2018-02-16T18:49:00.905Z,95956.25
2018-02-16T18:51:28.856Z,95960.53
2018-02-16T18:53:56.874Z,95960.08
2018-02-16T18:56:24.844Z,95963.61
2018-02-16T18:58:52.860Z,95964.67
2018-02-16T19:01:20.962Z,95970.46
2018-02-16T19:03:48.956Z,95968.82
2018-02-16T19:06:16.951Z,95962.88
2018-02-16T19:08:44.862Z,95965.24
2018-02-16T19:11:12.801Z,95968.51
2018-02-16T19:13:40.779Z,95970.98
2018-02-16T19:16:08.748Z,95972.28
2018-02-16T19:18:36.697Z,95977.77
2018-02-16T19:21:04.667Z,95980.38
2018-02-16T19:23:32.693Z,95983.50
2018-02-16T19:26:00.643Z,95984.58
2018-02-16T19:28:28.594Z,95994.78
2018-02-16T19:30:56.521Z,95997.39
2018-02-16T19:33:24.474Z,95998.16
2018-02-16T19:35:52.423Z,95985.68
2018-02-16T19:38:20.347Z,95986.20
2018-02-16T19:40:48.277Z,95988.09
2018-02-16T19:43:16.270Z,95971.42
2018-02-16T19:45:44.251Z,95986.56
2018-02-16T19:48:12.202Z,95992.16
2018-02-16T19:50:40.190Z,95995.30
2018-02-16T19:53:08.251Z,95997.84
2018-02-16T19:55:37.272Z,96005.42
2018-02-16T19:58:05.286Z,96004.49
2018-02-16T20:00:33.273Z,96008.88
2018-02-16T20:03:01.732Z,96008.38
2018-02-16T20:05:29.775Z,96010.86
2018-02-16T20:07:57.749Z,96006.48
2018-02-16T20:10:25.774Z,95988.98
2018-02-16T20:12:53.697Z,95965.55
2018-02-16T20:15:21.675Z,96001.72
2018-02-16T20:17:49.635Z,95959.89
2018-02-16T20:20:17.557Z,96010.69
2018-02-16T20:22:45.492Z,96006.30
2018-02-16T20:25:13.523Z,96003.31
2018-02-16T20:27:41.486Z,96002.25
2018-02-16T20:30:09.503Z,96002.14
2018-02-16T20:32:37.570Z,96006.08
2018-02-16T20:35:05.523Z,96007.39
2018-02-16T20:37:33.523Z,96010.07
2018-02-16T20:40:01.520Z,96014.87
2018-02-16T20:42:29.458Z,96012.41
2018-02-16T20:44:57.454Z,96014.39
2018-02-16T20:47:25.423Z,95994.42
2018-02-16T20:49:53.406Z,96016.20
2018-02-16T20:52:21.267Z,96015.91
2018-02-16T20:54:49.218Z,96020.17
2018-02-16T20:57:17.212Z,96016.36
2018-02-16T20:59:45.133Z,96020.11
2018-02-16T21:02:13.126Z,96013.28
2018-02-16T21:04:41.538Z,96014.70
2018-02-16T21:07:09.571Z,96012.83
2018-02-16T21:09:37.604Z,96013.68
2018-02-16T21:12:05.581Z,96018.89
2018-02-16T21:14:33.563Z,96019.81
2018-02-16T21:17:01.529Z,96016.98
2018-02-16T21:19:29.441Z,96014.23
2018-02-16T21:21:57.353Z,96026.45
2018-02-16T21:24:25.331Z,96020.23
2018-02-16T21:26:53.292Z,96021.92
2018-02-16T21:29:21.222Z,96017.44
2018-02-16T21:31:49.189Z,96024.51
2018-02-16T21:34:17.078Z,96036.23
2018-02-16T21:36:45.086Z,96026.75
2018-02-16T21:39:13.758Z,96040.80
2018-02-16T21:41:42.288Z,96042.59
2018-02-16T21:44:10.870Z,96041.55
2018-02-16T21:46:39.245Z,96039.90
2018-02-16T21:49:07.532Z,96043.56
2018-02-16T21:51:35.898Z,96051.22
2018-02-16T21:54:04.278Z,96046.96
2018-02-16T21:56:32.554Z,96045.48
2018-02-16T21:59:01.142Z,96043.52
2018-02-16T22:01:29.217Z,96043.70
2018-02-16T22:03:57.800Z,96047.52
2018-02-16T22:06:26.074Z,96051.34
2018-02-16T22:08:54.344Z,96053.44
2018-02-16T22:11:22.936Z,96055.23
2018-02-16T22:13:51.695Z,96057.43
2018-02-16T22:16:20.097Z,96054.89
2018-02-16T22:18:48.577Z,96056.58
2018-02-16T22:21:16.946Z,96064.92
2018-02-16T22:23:45.331Z,96058.48
2018-02-16T22:26:13.777Z,96053.87
2018-02-16T22:28:42.190Z,96053.08
2018-02-16T22:31:10.769Z,96053.58
2018-02-16T22:33:39.141Z,96053.53
2018-02-16T22:36:07.527Z,96053.06
2018-02-16T22:38:35.798Z,96055.70
2018-02-16T22:41:04.287Z,96053.93
2018-02-16T22:43:32.465Z,96054.90
2018-02-16T22:46:01.038Z,96057.05
2018-02-16T22:48:29.226Z,96046.58
2018-02-16T22:50:57.592Z,96047.29
2018-02-16T22:53:25.879Z,96055.88
2018-02-16T22:55:54.445Z,96050.74
2018-02-16T22:58:22.806Z,96048.36
2018-02-16T23:00:51.208Z,96050.94
2018-02-16T23:03:19.781Z,96047.95
2018-02-16T23:05:47.955Z,96055.96
2018-02-16T23:08:16.860Z,96060.03
2018-02-16T23:10:45.225Z,96053.73
2018-02-16T23:13:13.222Z,96049.56
2018-02-16T23:15:41.176Z,96052.20
2018-02-16T23:18:09.211Z,96050.31
2018-02-16T23:20:37.227Z,96052.95
2018-02-16T23:23:05.165Z,96045.73
2018-02-16T23:25:33.138Z,96049.01
2018-02-16T23:28:01.124Z,96054.11
2018-02-16T23:30:29.098Z,96049.34
2018-02-16T23:32:57.057Z,96047.57
2018-02-16T23:35:25.079Z,96052.69
2018-02-16T23:37:53.067Z,96041.83
2018-02-16T23:40:21.008Z,96039.22
2018-02-16T23:42:48.948Z,96034.94
2018-02-16T23:45:16.865Z,96037.77
2018-02-16T23:47:44.782Z,96043.20
2018-02-16T23:50:12.721Z,96043.91
2018-02-16T23:52:40.636Z,96040.71
2018-02-16T23:55:08.574Z,96032.91
2018-02-16T23:57:36.557Z,96037.89
